sensor_id;sensor_type;location;lat;lon;timestamp;pressure;altitude;pressure_sealevel;temperature;humidity
49044;BME280;34860;48.066;14.124;2023-10-19T00:02:35;95374.19;;;9.57;62.72
49044;BME280;34860;48.066;14.124;2023-10-19T00:05:23;95374.66;;;9.55;62.86
49044;BME280;34860;48.066;14.124;2023-10-19T00:08:14;95358.94;;;9.52;62.89
49044;BME280;34860;48.066;14.124;2023-10-19T00:11:07;95363.44;;;9.50;62.84
49044;BME280;34860;48.066;14.124;2023-10-19T00:13:55;95367.88;;;9.47;62.82
49044;BME280;34860;48.066;14.124;2023-10-19T00:16:45;95366.81;;;9.44;62.77
49044;BME280;34860;48.066;14.124;2023-10-19T00:19:41;95364.97;;;9.41;62.76
49044;BME280;34860;48.066;14.124;2023-10-19T00:22:44;95356.31;;;9.39;62.90
49044;BME280;34860;48.066;14.124;2023-10-19T00:25:34;95352.50;;;9.37;63.13
49044;BME280;34860;48.066;14.124;2023-10-19T00:28:22;95349.38;;;9.35;62.96
49044;BME280;34860;48.066;14.124;2023-10-19T00:31:12;95347.53;;;9.32;62.96
49044;BME280;34860;48.066;14.124;2023-10-19T00:34:01;95345.72;;;9.29;62.96
49044;BME280;34860;48.066;14.124;2023-10-19T00:36:51;95344.63;;;9.26;63.01
49044;BME280;34860;48.066;14.124;2023-10-19T00:39:40;95342.75;;;9.23;62.97
49044;BME280;34860;48.066;14.124;2023-10-19T00:42:35;95332.13;;;9.21;62.98
49044;BME280;34860;48.066;14.124;2023-10-19T00:45:30;95335.81;;;9.18;63.10
49044;BME280;34860;48.066;14.124;2023-10-19T00:48:20;95315.34;;;9.16;62.99
49044;BME280;34860;48.066;14.124;2023-10-19T00:51:14;95313.81;;;9.15;63.07
49044;BME280;34860;48.066;14.124;2023-10-19T00:54:17;95300.88;;;9.12;63.11
49044;BME280;34860;48.066;14.124;2023-10-19T00:57:15;95293.78;;;9.11;63.01
49044;BME280;34860;48.066;14.124;2023-10-19T01:00:09;95288.69;;;9.09;63.08
49044;BME280;34860;48.066;14.124;2023-10-19T01:03:00;95287.63;;;9.06;63.17
49044;BME280;34860;48.066;14.124;2023-10-19T01:05:58;95275.75;;;9.06;63.13
49044;BME280;34860;48.066;14.124;2023-10-19T01:08:59;95269.16;;;9.03;63.12
49044;BME280;34860;48.066;14.124;2023-10-19T01:11:49;95268.06;;;9.01;63.14
49044;BME280;34860;48.066;14.124;2023-10-19T01:14:39;95273.31;;;8.99;63.14
49044;BME280;34860;48.066;14.124;2023-10-19T01:17:28;95260.69;;;8.98;63.14
49044;BME280;34860;48.066;14.124;2023-10-19T01:20:20;95261.59;;;8.95;63.14
49044;BME280;34860;48.066;14.124;2023-10-19T01:23:11;95267.59;;;8.93;63.48
49044;BME280;34860;48.066;14.124;2023-10-19T01:26:07;95277.63;;;8.90;63.23
49044;BME280;34860;48.066;14.124;2023-10-19T01:28:56;95268.97;;;8.88;63.25
49044;BME280;34860;48.066;14.124;2023-10-19T01:31:48;95265.91;;;8.86;63.28
49044;BME280;34860;48.066;14.124;2023-10-19T01:34:42;95280.22;;;8.85;63.27
49044;BME280;34860;48.066;14.124;2023-10-19T01:37:31;95262.03;;;8.84;63.26
49044;BME280;34860;48.066;14.124;2023-10-19T01:40:23;95259.75;;;8.82;63.27
49044;BME280;34860;48.066;14.124;2023-10-19T01:43:10;95255.91;;;8.80;63.30
49044;BME280;34860;48.066;14.124;2023-10-19T01:46:04;95253.59;;;8.78;63.28
49044;BME280;34860;48.066;14.124;2023-10-19T01:48:58;95243.72;;;8.77;63.17
49044;BME280;34860;48.066;14.124;2023-10-19T01:51:45;95246.19;;;8.75;63.35
49044;BME280;34860;48.066;14.124;2023-10-19T01:54:34;95241.88;;;8.74;63.31
49044;BME280;34860;48.066;14.124;2023-10-19T01:57:26;95232.03;;;8.73;63.27
49044;BME280;34860;48.066;14.124;2023-10-19T02:00:14;95221.41;;;8.71;63.28
49044;BME280;34860;48.066;14.124;2023-10-19T02:03:09;95220.16;;;8.72;63.44
49044;BME280;34860;48.066;14.124;2023-10-19T02:06:00;95210.47;;;8.68;63.38
49044;BME280;34860;48.066;14.124;2023-10-19T02:08:58;95214.03;;;8.68;63.25
49044;BME280;34860;48.066;14.124;2023-10-19T02:11:48;95212.19;;;8.65;63.41
49044;BME280;34860;48.066;14.124;2023-10-19T02:14:40;95219.84;;;8.61;63.44
49044;BME280;34860;48.066;14.124;2023-10-19T02:17:28;95218.34;;;8.60;63.40
49044;BME280;34860;48.066;14.124;2023-10-19T02:20:17;95214.47;;;8.58;63.52
49044;BME280;34860;48.066;14.124;2023-10-19T02:23:19;95216.94;;;8.56;63.43
49044;BME280;34860;48.066;14.124;2023-10-19T02:26:07;95217.41;;;8.54;63.44
49044;BME280;34860;48.066;14.124;2023-10-19T02:28:56;95224.16;;;8.53;63.55
49044;BME280;34860;48.066;14.124;2023-10-19T02:31:45;95220.63;;;8.52;63.66
49044;BME280;34860;48.066;14.124;2023-10-19T02:34:34;95226.63;;;8.51;63.44
49044;BME280;34860;48.066;14.124;2023-10-19T02:37:21;95220.78;;;8.49;63.46
49044;BME280;34860;48.066;14.124;2023-10-19T02:40:12;95210.63;;;8.46;63.53
49044;BME280;34860;48.066;14.124;2023-10-19T02:43:06;95199.22;;;8.44;63.59
49044;BME280;34860;48.066;14.124;2023-10-19T02:45:53;95198.13;;;8.41;63.53
49044;BME280;34860;48.066;14.124;2023-10-19T02:48:43;95187.50;;;8.40;63.55
49044;BME280;34860;48.066;14.124;2023-10-19T02:51:31;95189.94;;;8.37;63.60
49044;BME280;34860;48.066;14.124;2023-10-19T02:54:20;95193.97;;;8.36;63.63
49044;BME280;34860;48.066;14.124;2023-10-19T02:57:09;95191.66;;;8.35;63.68
49044;BME280;34860;48.066;14.124;2023-10-19T02:59:59;95193.31;;;8.32;63.58
49044;BME280;34860;48.066;14.124;2023-10-19T03:02:54;95197.34;;;8.31;63.68
49044;BME280;34860;48.066;14.124;2023-10-19T03:05:44;95193.03;;;8.30;63.57
49044;BME280;34860;48.066;14.124;2023-10-19T03:08:33;95185.94;;;8.29;63.55
49044;BME280;34860;48.066;14.124;2023-10-19T03:11:22;95178.56;;;8.26;63.71
49044;BME280;34860;48.066;14.124;2023-10-19T03:14:10;95170.25;;;8.26;63.60
49044;BME280;34860;48.066;14.124;2023-10-19T03:16:58;95168.72;;;8.25;63.69
49044;BME280;34860;48.066;14.124;2023-10-19T03:19:47;95168.28;;;8.27;63.71
49044;BME280;34860;48.066;14.124;2023-10-19T03:22:37;95162.09;;;8.23;63.72
49044;BME280;34860;48.066;14.124;2023-10-19T03:25:24;95157.78;;;8.22;63.75
49044;BME280;34860;48.066;14.124;2023-10-19T03:28:30;95155.50;;;8.20;63.62
49044;BME280;34860;48.066;14.124;2023-10-19T03:31:22;95156.25;;;8.21;63.67
49044;BME280;34860;48.066;14.124;2023-10-19T03:34:13;95148.88;;;8.17;63.69
49044;BME280;34860;48.066;14.124;2023-10-19T03:37:03;95150.88;;;8.17;63.75
49044;BME280;34860;48.066;14.124;2023-10-19T03:39:57;95144.25;;;8.14;63.72
49044;BME280;34860;48.066;14.124;2023-10-19T03:42:46;95156.09;;;8.15;63.73
49044;BME280;34860;48.066;14.124;2023-10-19T03:45:34;95153.31;;;8.15;63.69
49044;BME280;34860;48.066;14.124;2023-10-19T03:48:25;95157.31;;;8.14;63.75
49044;BME280;34860;48.066;14.124;2023-10-19T03:51:17;95155.00;;;8.12;63.71
49044;BME280;34860;48.066;14.124;2023-10-19T03:54:05;95144.88;;;8.09;63.84
49044;BME280;34860;48.066;14.124;2023-10-19T03:57:11;95134.72;;;8.06;63.75
49044;BME280;34860;48.066;14.124;2023-10-19T04:00:01;95130.84;;;8.04;63.75
49044;BME280;34860;48.066;14.124;2023-10-19T04:02:58;95132.09;;;8.03;63.78
49044;BME280;34860;48.066;14.124;2023-10-19T04:05:46;95130.53;;;8.02;63.86
49044;BME280;34860;48.066;14.124;2023-10-19T04:08:35;95117.63;;;7.98;63.82
49044;BME280;34860;48.066;14.124;2023-10-19T04:11:24;95123.63;;;7.97;63.90
49044;BME280;34860;48.066;14.124;2023-10-19T04:14:20;95119.75;;;7.94;63.77
49044;BME280;34860;48.066;14.124;2023-10-19T04:17:09;95114.69;;;7.93;63.93
49044;BME280;34860;48.066;14.124;2023-10-19T04:19:58;95121.00;;;7.93;63.84
49044;BME280;34860;48.066;14.124;2023-10-19T04:22:55;95119.16;;;7.90;63.76
49044;BME280;34860;48.066;14.124;2023-10-19T04:25:44;95118.84;;;7.88;63.93
49044;BME280;34860;48.066;14.124;2023-10-19T04:28:33;95126.34;;;7.88;63.91
49044;BME280;34860;48.066;14.124;2023-10-19T04:31:29;95112.97;;;7.86;63.89
49044;BME280;34860;48.066;14.124;2023-10-19T04:34:18;95117.00;;;7.85;64.02
49044;BME280;34860;48.066;14.124;2023-10-19T04:37:07;95114.69;;;7.84;64.00
49044;BME280;34860;48.066;14.124;2023-10-19T04:39:59;95117.91;;;7.82;63.93
49044;BME280;34860;48.066;14.124;2023-10-19T04:42:48;95104.06;;;7.82;64.01
49044;BME280;34860;48.066;14.124;2023-10-19T04:45:39;95105.28;;;7.81;64.00
49044;BME280;34860;48.066;14.124;2023-10-19T04:48:28;95101.44;;;7.78;64.01
49044;BME280;34860;48.066;14.124;2023-10-19T04:51:18;95100.22;;;7.79;63.95
49044;BME280;34860;48.066;14.124;2023-10-19T04:54:06;95095.91;;;7.78;64.00
49044;BME280;34860;48.066;14.124;2023-10-19T04:56:55;95095.91;;;7.78;63.91
49044;BME280;34860;48.066;14.124;2023-10-19T04:59:43;95099.91;;;7.77;63.97
49044;BME280;34860;48.066;14.124;2023-10-19T05:02:32;95101.13;;;7.76;63.90
49044;BME280;34860;48.066;14.124;2023-10-19T05:05:21;95097.59;;;7.76;64.12
49044;BME280;34860;48.066;14.124;2023-10-19T05:08:09;95101.59;;;7.75;64.10
49044;BME280;34860;48.066;14.124;2023-10-19T05:10:57;95105.13;;;7.75;63.98
49044;BME280;34860;48.066;14.124;2023-10-19T05:13:46;95104.81;;;7.73;64.04
49044;BME280;34860;48.066;14.124;2023-10-19T05:16:34;95106.34;;;7.74;64.02
49044;BME280;34860;48.066;14.124;2023-10-19T05:19:22;95106.81;;;7.73;64.03
49044;BME280;34860;48.066;14.124;2023-10-19T05:22:11;95093.44;;;7.71;63.97
49044;BME280;34860;48.066;14.124;2023-10-19T05:24:59;95103.28;;;7.72;64.03
49044;BME280;34860;48.066;14.124;2023-10-19T05:27:47;95093.44;;;7.71;64.02
49044;BME280;34860;48.066;14.124;2023-10-19T05:30:36;95099.44;;;7.70;64.02
49044;BME280;34860;48.066;14.124;2023-10-19T05:33:24;95103.41;;;7.69;64.06
49044;BME280;34860;48.066;14.124;2023-10-19T05:36:12;95101.88;;;7.68;64.25
49044;BME280;34860;48.066;14.124;2023-10-19T05:39:02;95103.88;;;7.67;64.08
49044;BME280;34860;48.066;14.124;2023-10-19T05:41:54;95104.31;;;7.66;64.03
49044;BME280;34860;48.066;14.124;2023-10-19T05:44:42;95123.22;;;7.67;64.18
49044;BME280;34860;48.066;14.124;2023-10-19T05:47:30;95113.06;;;7.64;64.11
49044;BME280;34860;48.066;14.124;2023-10-19T05:50:18;95113.84;;;7.64;64.19
49044;BME280;34860;48.066;14.124;2023-10-19T05:53:07;95112.31;;;7.63;64.25
49044;BME280;34860;48.066;14.124;2023-10-19T05:55:56;95101.56;;;7.66;64.10
49044;BME280;34860;48.066;14.124;2023-10-19T05:58:44;95115.38;;;7.66;64.18
49044;BME280;34860;48.066;14.124;2023-10-19T06:01:35;95116.16;;;7.66;64.06
49044;BME280;34860;48.066;14.124;2023-10-19T06:04:23;95118.16;;;7.66;64.14
49044;BME280;34860;48.066;14.124;2023-10-19T06:07:11;95111.41;;;7.67;64.04
49044;BME280;34860;48.066;14.124;2023-10-19T06:09:59;95108.94;;;7.69;64.17
49044;BME280;34860;48.066;14.124;2023-10-19T06:12:52;95110.50;;;7.70;64.15
49044;BME280;34860;48.066;14.124;2023-10-19T06:15:40;95117.56;;;7.71;64.10
49044;BME280;34860;48.066;14.124;2023-10-19T06:18:28;95121.84;;;7.72;64.21
49044;BME280;34860;48.066;14.124;2023-10-19T06:21:17;95127.72;;;7.74;64.06
49044;BME280;34860;48.066;14.124;2023-10-19T06:24:07;95134.78;;;7.75;64.08
49044;BME280;34860;48.066;14.124;2023-10-19T06:26:55;95121.25;;;7.77;64.21
49044;BME280;34860;48.066;14.124;2023-10-19T06:29:44;95108.22;;;7.77;64.11
49044;BME280;34860;48.066;14.124;2023-10-19T06:32:32;95105.75;;;7.79;64.18
49044;BME280;34860;48.066;14.124;2023-10-19T06:35:21;95103.63;;;7.84;64.11
49044;BME280;34860;48.066;14.124;2023-10-19T06:38:10;95106.22;;;7.87;64.06
49044;BME280;34860;48.066;14.124;2023-10-19T06:40:59;95093.81;;;7.92;64.10
49044;BME280;34860;48.066;14.124;2023-10-19T06:43:49;95093.66;;;7.95;64.09
49044;BME280;34860;48.066;14.124;2023-10-19T06:46:38;95094.28;;;7.99;64.03
49044;BME280;34860;48.066;14.124;2023-10-19T06:49:29;95089.34;;;8.04;64.02
49044;BME280;34860;48.066;14.124;2023-10-19T06:52:17;95085.22;;;8.08;64.10
49044;BME280;34860;48.066;14.124;2023-10-19T06:55:07;95090.59;;;8.12;64.01
49044;BME280;34860;48.066;14.124;2023-10-19T06:58:00;95101.81;;;8.17;63.99
49044;BME280;34860;48.066;14.124;2023-10-19T07:00:49;95097.69;;;8.22;63.98
49044;BME280;34860;48.066;14.124;2023-10-19T07:03:44;95097.06;;;8.27;63.91
49044;BME280;34860;48.066;14.124;2023-10-19T07:06:32;95095.69;;;8.32;64.01
49044;BME280;34860;48.066;14.124;2023-10-19T07:09:21;95097.84;;;8.37;63.79
49044;BME280;34860;48.066;14.124;2023-10-19T07:12:10;95093.38;;;8.40;63.89
49044;BME280;34860;48.066;14.124;2023-10-19T07:14:58;95106.19;;;8.46;63.91
49044;BME280;34860;48.066;14.124;2023-10-19T07:17:48;95108.78;;;8.50;64.04
49044;BME280;34860;48.066;14.124;2023-10-19T07:20:40;95099.09;;;8.54;63.98
49044;BME280;34860;48.066;14.124;2023-10-19T07:23:29;95102.78;;;8.61;63.93
49044;BME280;34860;48.066;14.124;2023-10-19T07:26:17;95098.00;;;8.61;63.92
49044;BME280;34860;48.066;14.124;2023-10-19T07:29:06;95093.84;;;8.66;63.93
49044;BME280;34860;48.066;14.124;2023-10-19T07:31:56;95091.72;;;8.70;64.03
49044;BME280;34860;48.066;14.124;2023-10-19T07:34:44;95103.84;;;8.72;63.99
49044;BME280;34860;48.066;14.124;2023-10-19T07:37:34;95104.00;;;8.78;63.98
49044;BME280;34860;48.066;14.124;2023-10-19T07:40:23;95097.53;;;8.81;63.92
49044;BME280;34860;48.066;14.124;2023-10-19T07:43:11;95096.63;;;8.84;64.08
49044;BME280;34860;48.066;14.124;2023-10-19T07:45:59;95098.47;;;8.87;64.05
49044;BME280;34860;48.066;14.124;2023-10-19T07:48:48;95109.38;;;8.91;64.01
49044;BME280;34860;48.066;14.124;2023-10-19T07:51:36;95108.91;;;8.93;64.10
49044;BME280;34860;48.066;14.124;2023-10-19T07:54:25;95111.97;;;8.95;64.10
49044;BME280;34860;48.066;14.124;2023-10-19T07:57:14;95113.06;;;8.97;64.27
49044;BME280;34860;48.066;14.124;2023-10-19T08:00:03;95099.03;;;9.01;64.27
49044;BME280;34860;48.066;14.124;2023-10-19T08:02:52;95100.88;;;9.04;64.12
49044;BME280;34860;48.066;14.124;2023-10-19T08:05:40;95094.41;;;9.07;64.37
49044;BME280;34860;48.066;14.124;2023-10-19T08:08:28;95094.25;;;9.11;64.10
49044;BME280;34860;48.066;14.124;2023-10-19T08:11:22;95101.91;;;9.16;64.13
49044;BME280;34860;48.066;14.124;2023-10-19T08:14:10;95108.06;;;9.20;64.03
49044;BME280;34860;48.066;14.124;2023-10-19T08:16:58;95102.81;;;9.22;64.22
49044;BME280;34860;48.066;14.124;2023-10-19T08:19:46;95098.66;;;9.26;64.19
49044;BME280;34860;48.066;14.124;2023-10-19T08:22:34;95096.50;;;9.31;64.20
49044;BME280;34860;48.066;14.124;2023-10-19T08:25:23;95088.78;;;9.35;64.14
49044;BME280;34860;48.066;14.124;2023-10-19T08:28:16;95080.31;;;9.38;64.14
49044;BME280;34860;48.066;14.124;2023-10-19T08:31:08;95095.53;;;9.43;64.14
49044;BME280;34860;48.066;14.124;2023-10-19T08:33:56;95094.59;;;9.46;64.11
49044;BME280;34860;48.066;14.124;2023-10-19T08:36:44;95087.63;;;9.51;64.14
49044;BME280;34860;48.066;14.124;2023-10-19T08:39:33;95100.09;;;9.55;64.13
49044;BME280;34860;48.066;14.124;2023-10-19T08:42:23;95099.44;;;9.60;64.15
49044;BME280;34860;48.066;14.124;2023-10-19T08:45:13;95094.97;;;9.63;64.07
49044;BME280;34860;48.066;14.124;2023-10-19T08:48:01;95096.06;;;9.66;64.12
49044;BME280;34860;48.066;14.124;2023-10-19T08:50:51;95097.44;;;9.70;64.02
49044;BME280;34860;48.066;14.124;2023-10-19T08:53:42;95101.56;;;9.75;64.13
49044;BME280;34860;48.066;14.124;2023-10-19T08:56:31;95104.91;;;9.79;64.00
49044;BME280;34860;48.066;14.124;2023-10-19T08:59:20;95097.97;;;9.84;64.03
49044;BME280;34860;48.066;14.124;2023-10-19T09:02:09;95094.25;;;9.87;63.98
49044;BME280;34860;48.066;14.124;2023-10-19T09:04:57;95089.78;;;9.89;63.94
49044;BME280;34860;48.066;14.124;2023-10-19T09:07:46;95089.59;;;9.93;64.05
49044;BME280;34860;48.066;14.124;2023-10-19T09:10:43;95085.41;;;9.97;63.99
49044;BME280;34860;48.066;14.124;2023-10-19T09:13:43;95082.44;;;10.01;64.13
49044;BME280;34860;48.066;14.124;2023-10-19T09:16:31;95092.13;;;10.06;64.06
49044;BME280;34860;48.066;14.124;2023-10-19T09:19:35;95089.00;;;10.13;64.01
49044;BME280;34860;48.066;14.124;2023-10-19T09:22:24;95087.56;;;10.17;63.89
49044;BME280;34860;48.066;14.124;2023-10-19T09:25:12;95075.53;;;10.21;63.87
49044;BME280;34860;48.066;14.124;2023-10-19T09:28:01;95076.13;;;10.25;64.22
49044;BME280;34860;48.066;14.124;2023-10-19T09:30:49;95083.78;;;10.30;64.01
49044;BME280;34860;48.066;14.124;2023-10-19T09:33:40;95082.41;;;10.34;63.96
49044;BME280;34860;48.066;14.124;2023-10-19T09:36:31;95088.06;;;10.40;63.96
49044;BME280;34860;48.066;14.124;2023-10-19T09:39:19;95086.94;;;10.47;63.78
49044;BME280;34860;48.066;14.124;2023-10-19T09:42:13;95088.59;;;10.53;63.80
49044;BME280;34860;48.066;14.124;2023-10-19T09:45:05;95081.13;;;10.60;63.82
49044;BME280;34860;48.066;14.124;2023-10-19T09:47:54;95086.50;;;10.63;63.80
49044;BME280;34860;48.066;14.124;2023-10-19T09:50:45;95073.94;;;10.68;63.82
49044;BME280;34860;48.066;14.124;2023-10-19T09:53:39;95070.50;;;10.73;63.81
49044;BME280;34860;48.066;14.124;2023-10-19T09:56:34;95063.53;;;10.78;63.87
49044;BME280;34860;48.066;14.124;2023-10-19T09:59:28;95082.31;;;10.83;63.79
49044;BME280;34860;48.066;14.124;2023-10-19T10:02:19;95070.50;;;10.88;63.70
49044;BME280;34860;48.066;14.124;2023-10-19T10:08:31;95053.00;;;10.97;63.84
49044;BME280;34860;48.066;14.124;2023-10-19T10:11:23;95055.84;;;11.02;63.75
49044;BME280;34860;48.066;14.124;2023-10-19T10:14:21;95057.19;;;11.07;63.70
49044;BME280;34860;48.066;14.124;2023-10-19T10:17:16;95056.53;;;11.12;63.78
49044;BME280;34860;48.066;14.124;2023-10-19T10:20:30;95054.31;;;11.16;63.82
49044;BME280;34860;48.066;14.124;2023-10-19T10:23:21;95042.25;;;11.19;63.80
49044;BME280;34860;48.066;14.124;2023-10-19T10:26:13;95044.06;;;11.22;63.82
49044;BME280;34860;48.066;14.124;2023-10-19T10:29:11;95039.56;;;11.25;63.84
49044;BME280;34860;48.066;14.124;2023-10-19T10:32:00;95031.75;;;11.29;63.71
49044;BME280;34860;48.066;14.124;2023-10-19T10:34:49;95024.97;;;11.30;63.90
49044;BME280;34860;48.066;14.124;2023-10-19T10:37:39;95022.47;;;11.32;63.73
49044;BME280;34860;48.066;14.124;2023-10-19T10:40:44;95018.22;;;11.37;63.82
49044;BME280;34860;48.066;14.124;2023-10-19T10:43:32;95018.50;;;11.39;63.85
49044;BME280;34860;48.066;14.124;2023-10-19T10:46:23;95013.53;;;11.43;63.73
49044;BME280;34860;48.066;14.124;2023-10-19T10:49:14;95013.81;;;11.45;63.83
49044;BME280;34860;48.066;14.124;2023-10-19T10:52:03;95005.25;;;11.49;63.88
49044;BME280;34860;48.066;14.124;2023-10-19T10:54:51;94987.59;;;11.52;63.89
49044;BME280;34860;48.066;14.124;2023-10-19T10:57:40;94977.53;;;11.54;63.96
49044;BME280;34860;48.066;14.124;2023-10-19T11:00:28;94964.66;;;11.57;63.99
49044;BME280;34860;48.066;14.124;2023-10-19T11:03:21;94974.81;;;11.60;63.84
49044;BME280;34860;48.066;14.124;2023-10-19T11:06:11;94972.31;;;11.62;63.91
49044;BME280;34860;48.066;14.124;2023-10-19T11:09:09;94960.97;;;11.66;64.16
49044;BME280;34860;48.066;14.124;2023-10-19T11:11:57;94952.91;;;11.68;63.88
49044;BME280;34860;48.066;14.124;2023-10-19T11:14:53;94951.44;;;11.72;63.84
49044;BME280;34860;48.066;14.124;2023-10-19T11:17:42;94938.09;;;11.76;63.83
49044;BME280;34860;48.066;14.124;2023-10-19T11:20:33;94937.38;;;11.81;63.86
49044;BME280;34860;48.066;14.124;2023-10-19T11:23:34;94932.66;;;11.88;63.96
49044;BME280;34860;48.066;14.124;2023-10-19T11:26:23;94941.38;;;11.95;63.74
49044;BME280;34860;48.066;14.124;2023-10-19T11:29:16;94935.38;;;12.03;63.72
49044;BME280;34860;48.066;14.124;2023-10-19T11:32:04;94935.72;;;12.10;63.63
49044;BME280;34860;48.066;14.124;2023-10-19T11:34:53;94930.72;;;12.14;63.56
49044;BME280;34860;48.066;14.124;2023-10-19T11:37:47;94930.75;;;12.20;63.62
49044;BME280;34860;48.066;14.124;2023-10-19T11:40:35;94934.09;;;12.24;63.50
49044;BME280;34860;48.066;14.124;2023-10-19T11:43:23;94936.16;;;12.29;63.63
49044;BME280;34860;48.066;14.124;2023-10-19T11:46:14;94932.41;;;12.32;63.70
49044;BME280;34860;48.066;14.124;2023-10-19T11:49:02;94939.22;;;12.31;63.63
49044;BME280;34860;48.066;14.124;2023-10-19T11:51:50;94943.06;;;12.34;63.77
49044;BME280;34860;48.066;14.124;2023-10-19T11:54:41;94941.31;;;12.37;63.73
49044;BME280;34860;48.066;14.124;2023-10-19T11:57:29;94931.69;;;12.38;63.64
49044;BME280;34860;48.066;14.124;2023-10-19T12:00:17;94918.81;;;12.40;63.97
49044;BME280;34860;48.066;14.124;2023-10-19T12:03:09;94919.81;;;12.43;63.80
49044;BME280;34860;48.066;14.124;2023-10-19T12:05:57;94907.44;;;12.44;63.60
49044;BME280;34860;48.066;14.124;2023-10-19T12:08:45;94902.13;;;12.46;63.71
49044;BME280;34860;48.066;14.124;2023-10-19T12:11:35;94899.91;;;12.50;63.64
49044;BME280;34860;48.066;14.124;2023-10-19T12:14:23;94910.06;;;12.53;63.80
49044;BME280;34860;48.066;14.124;2023-10-19T12:17:11;94915.91;;;12.55;63.72
49044;BME280;34860;48.066;14.124;2023-10-19T12:19:59;94919.25;;;12.59;63.73
49044;BME280;34860;48.066;14.124;2023-10-19T12:22:47;94914.97;;;12.64;63.68
49044;BME280;34860;48.066;14.124;2023-10-19T12:25:39;94914.25;;;12.69;63.65
49044;BME280;34860;48.066;14.124;2023-10-19T12:28:37;94906.41;;;12.73;63.69
49044;BME280;34860;48.066;14.124;2023-10-19T12:31:26;94894.06;;;12.80;63.67
49044;BME280;34860;48.066;14.124;2023-10-19T12:34:14;94887.75;;;12.85;63.56
49044;BME280;34860;48.066;14.124;2023-10-19T12:37:04;94885.50;;;12.89;63.60
49044;BME280;34860;48.066;14.124;2023-10-19T12:39:54;94888.06;;;12.93;63.59
49044;BME280;34860;48.066;14.124;2023-10-19T12:42:42;94895.44;;;12.96;63.66
49044;BME280;34860;48.066;14.124;2023-10-19T12:45:32;94881.75;;;12.98;63.65
49044;BME280;34860;48.066;14.124;2023-10-19T12:48:23;94876.44;;;13.00;63.50
49044;BME280;34860;48.066;14.124;2023-10-19T12:51:17;94879.50;;;13.02;63.56
49044;BME280;34860;48.066;14.124;2023-10-19T12:54:11;94883.59;;;13.06;63.63
49044;BME280;34860;48.066;14.124;2023-10-19T12:57:00;94880.78;;;13.06;63.73
49044;BME280;34860;48.066;14.124;2023-10-19T12:59:50;94871.94;;;13.08;63.42
49044;BME280;34860;48.066;14.124;2023-10-19T13:02:39;94866.63;;;13.10;63.54
49044;BME280;34860;48.066;14.124;2023-10-19T13:05:27;94859.78;;;13.11;63.59
49044;BME280;34860;48.066;14.124;2023-10-19T13:08:15;94851.69;;;13.13;63.72
49044;BME280;34860;48.066;14.124;2023-10-19T13:11:05;94848.91;;;13.13;63.60
49044;BME280;34860;48.066;14.124;2023-10-19T13:13:59;94852.72;;;13.16;63.61
49044;BME280;34860;48.066;14.124;2023-10-19T13:16:48;94856.00;;;13.14;63.62
49044;BME280;34860;48.066;14.124;2023-10-19T13:19:39;94850.41;;;13.14;63.63
49044;BME280;34860;48.066;14.124;2023-10-19T13:22:27;94848.41;;;13.15;63.64
49044;BME280;34860;48.066;14.124;2023-10-19T13:25:16;94846.38;;;13.15;63.55
49044;BME280;34860;48.066;14.124;2023-10-19T13:28:06;94829.66;;;13.15;63.59
49044;BME280;34860;48.066;14.124;2023-10-19T13:30:56;94835.97;;;13.16;63.49
49044;BME280;34860;48.066;14.124;2023-10-19T13:33:44;94835.22;;;13.15;63.71
49044;BME280;34860;48.066;14.124;2023-10-19T13:36:34;94819.25;;;13.16;63.71
49044;BME280;34860;48.066;14.124;2023-10-19T13:39:22;94810.88;;;13.16;63.72
49044;BME280;34860;48.066;14.124;2023-10-19T13:42:11;94789.34;;;13.16;63.64
49044;BME280;34860;48.066;14.124;2023-10-19T13:44:59;94782.97;;;13.16;63.69
49044;BME280;34860;48.066;14.124;2023-10-19T13:47:47;94789.34;;;13.16;63.73
49044;BME280;34860;48.066;14.124;2023-10-19T13:50:41;94795.94;;;13.19;63.76
49044;BME280;34860;48.066;14.124;2023-10-19T13:53:33;94785.53;;;13.19;63.78
49044;BME280;34860;48.066;14.124;2023-10-19T13:56:21;94791.38;;;13.21;63.59
49044;BME280;34860;48.066;14.124;2023-10-19T13:59:09;94779.97;;;13.25;63.63
49044;BME280;34860;48.066;14.124;2023-10-19T14:01:57;94778.72;;;13.26;63.47
49044;BME280;34860;48.066;14.124;2023-10-19T14:04:46;94781.78;;;13.28;63.49
49044;BME280;34860;48.066;14.124;2023-10-19T14:07:34;94772.91;;;13.30;63.59
49044;BME280;34860;48.066;14.124;2023-10-19T14:10:23;94771.13;;;13.32;63.52
49044;BME280;34860;48.066;14.124;2023-10-19T14:13:11;94777.00;;;13.34;63.58
49044;BME280;34860;48.066;14.124;2023-10-19T14:16:05;94771.44;;;13.34;63.56
49044;BME280;34860;48.066;14.124;2023-10-19T14:18:54;94778.50;;;13.35;63.53
49044;BME280;34860;48.066;14.124;2023-10-19T14:21:43;94766.09;;;13.36;63.50
49044;BME280;34860;48.066;14.124;2023-10-19T14:24:32;94757.72;;;13.36;63.58
49044;BME280;34860;48.066;14.124;2023-10-19T14:27:22;94751.41;;;13.36;63.49
49044;BME280;34860;48.066;14.124;2023-10-19T14:30:12;94743.03;;;13.36;63.59
49044;BME280;34860;48.066;14.124;2023-10-19T14:33:01;94744.03;;;13.38;63.71
49044;BME280;34860;48.066;14.124;2023-10-19T14:35:49;94742.53;;;13.37;63.56
49044;BME280;34860;48.066;14.124;2023-10-19T14:38:38;94750.13;;;13.37;63.56
49044;BME280;34860;48.066;14.124;2023-10-19T14:41:26;94772.44;;;13.37;63.60
49044;BME280;34860;48.066;14.124;2023-10-19T14:44:15;94764.56;;;13.35;63.66
49044;BME280;34860;48.066;14.124;2023-10-19T14:47:03;94750.63;;;13.35;63.67
49044;BME280;34860;48.066;14.124;2023-10-19T14:49:52;94728.28;;;13.35;63.66
49044;BME280;34860;48.066;14.124;2023-10-19T14:52:41;94716.88;;;13.33;63.64
49044;BME280;34860;48.066;14.124;2023-10-19T14:55:29;94719.69;;;13.33;63.61
49044;BME280;34860;48.066;14.124;2023-10-19T14:58:18;94724.97;;;13.31;63.83
49044;BME280;34860;48.066;14.124;2023-10-19T15:01:08;94721.94;;;13.29;63.80